Time;durP1;ratioP1;P1;durP2;ratioP2;P2;SDS_P1;SDS_P2;PMS_P1;PMS_P2;Temp;Humidity;BMP_temperature;BMP_pressure;BME280_temperature;BME280_humidity;BME280_pressure;Samples;Min_cycle;Max_cycle;Signal;HPM_P1;HPM_P2
2022/08/06 00:02:25;;;;;;;15.82;7.28;;;;;;;;;;4247416;33;20085;-64
2022/08/06 00:35:34;;;;;;;13.27;8.32;;;;;;;;;;4339873;28;20180;-63
2022/08/06 00:38:00;;;;;;;16.58;7.90;;;;;;;;;;4233132;33;20188;-65
2022/08/06 00:40:29;;;;;;;19.48;8.23;;;;;;;;;;4232847;33;20125;-65
2022/08/06 00:42:57;;;;;;;23.27;8.98;;;;;;;;;;4233059;33;20093;-63
2022/08/06 00:45:23;;;;;;;17.85;8.65;;;;;;;;;;4233081;33;20120;-66
2022/08/06 00:47:49;;;;;;;14.30;8.10;;;;;;;;;;4233020;33;20120;-65
2022/08/06 00:50:15;;;;;;;19.30;7.62;;;;;;;;;;4232985;33;20699;-66
2022/08/06 00:52:41;;;;;;;10.77;7.30;;;;;;;;;;4232849;33;20220;-66
2022/08/06 00:55:08;;;;;;;13.65;7.65;;;;;;;;;;4232753;33;20139;-66
2022/08/06 00:57:34;;;;;;;18.12;8.07;;;;;;;;;;4232411;33;20123;-65
2022/08/06 01:00:00;;;;;;;13.60;8.07;;;;;;;;;;4232895;33;20188;-65
2022/08/06 01:02:26;;;;;;;12.52;6.97;;;;;;;;;;4232832;33;20135;-65
2022/08/06 01:04:52;;;;;;;17.27;7.90;;;;;;;;;;4232860;33;20132;-65
2022/08/06 01:07:18;;;;;;;12.27;7.32;;;;;;;;;;4232802;33;20125;-66
2022/08/06 01:09:44;;;;;;;19.67;7.80;;;;;;;;;;4233026;33;20126;-65
2022/08/06 01:12:10;;;;;;;13.73;6.97;;;;;;;;;;4232864;33;20125;-65
2022/08/06 01:14:36;;;;;;;14.68;6.85;;;;;;;;;;4232925;33;20131;-65
2022/08/06 01:17:07;;;;;;;13.77;7.47;;;;;;;;;;4232812;33;20159;-66
2022/08/06 01:19:48;;;;;;;15.10;7.18;;;;;;;;;;4232827;33;20114;-65
2022/08/06 01:22:42;;;;;;;17.62;7.45;;;;;;;;;;4243239;33;20180;-66
2022/08/06 01:25:32;;;;;;;13.65;6.97;;;;;;;;;;4232547;33;20108;-65
2022/08/06 01:28:01;;;;;;;20.25;7.87;;;;;;;;;;4232926;33;20125;-64
2022/08/06 01:30:44;;;;;;;15.95;7.55;;;;;;;;;;4232495;33;20105;-66
2022/08/06 01:33:19;;;;;;;15.65;7.47;;;;;;;;;;4232826;33;20139;-65
2022/08/06 01:35:54;;;;;;;17.08;7.85;;;;;;;;;;4230802;33;20192;-65
2022/08/06 01:38:46;;;;;;;;;;;;;;;;;;4243430;33;20136;-65
2022/08/06 01:41:38;;;;;;;21.35;8.32;;;;;;;;;;4229953;33;20522;-65
2022/08/06 01:44:03;;;;;;;19.62;8.23;;;;;;;;;;4225904;33;20114;-65
2022/08/06 01:46:30;;;;;;;17.50;8.32;;;;;;;;;;4233775;33;20521;-65
2022/08/06 01:48:57;;;;;;;17.15;8.00;;;;;;;;;;4233399;33;20096;-65
2022/08/06 01:51:23;;;;;;;18.48;8.25;;;;;;;;;;4233570;33;20105;-65
2022/08/06 01:53:50;;;;;;;16.30;9.13;;;;;;;;;;4221811;33;20119;-65
2022/08/06 01:56:17;;;;;;;13.25;8.07;;;;;;;;;;4245138;33;20552;-65
2022/08/06 01:58:43;;;;;;;20.75;8.88;;;;;;;;;;4233322;33;20120;-65
2022/08/06 02:01:12;;;;;;;24.98;10.23;;;;;;;;;;4246385;33;20428;-65
2022/08/06 02:03:47;;;;;;;17.87;9.82;;;;;;;;;;4246299;33;20120;-65
2022/08/06 02:06:17;;;;;;;22.05;8.52;;;;;;;;;;4233244;33;20093;-66
2022/08/06 02:08:44;;;;;;;22.80;8.93;;;;;;;;;;4232504;33;20112;-66
2022/08/06 02:11:11;;;;;;;24.02;10.30;;;;;;;;;;4244497;33;20571;-66
2022/08/06 02:13:37;;;;;;;19.30;9.18;;;;;;;;;;4233158;33;20113;-65
2022/08/06 02:16:05;;;;;;;20.02;9.80;;;;;;;;;;4233141;33;20108;-66
2022/08/06 02:18:40;;;;;;;23.62;9.88;;;;;;;;;;4246207;33;20113;-65
2022/08/06 02:21:08;;;;;;;;;;;;;;;;;;4233700;33;20096;-66
2022/08/06 02:23:35;;;;;;;20.12;9.40;;;;;;;;;;4246156;33;20341;-66
2022/08/06 02:26:02;;;;;;;23.87;10.02;;;;;;;;;;4233023;33;20109;-66
2022/08/06 02:28:30;;;;;;;17.67;9.07;;;;;;;;;;4246041;33;20191;-65
2022/08/06 02:30:57;;;;;;;21.33;9.30;;;;;;;;;;4232925;33;20536;-66
2022/08/06 02:33:24;;;;;;;15.48;8.73;;;;;;;;;;4232979;33;20116;-66
2022/08/06 02:36:04;;;;;;;25.08;9.13;;;;;;;;;;4245885;33;20460;-66
2022/08/06 02:38:36;;;;;;;29.37;8.82;;;;;;;;;;4219126;33;20109;-66
2022/08/06 02:41:13;;;;;;;21.75;8.60;;;;;;;;;;4231907;33;20109;-65
2022/08/06 02:43:40;;;;;;;34.20;9.77;;;;;;;;;;4218819;33;20116;-65
2022/08/06 02:46:06;;;;;;;21.37;9.45;;;;;;;;;;4218815;33;20101;-65
2022/08/06 02:48:40;;;;;;;22.30;9.85;;;;;;;;;;4231997;33;20115;-65
2022/08/06 02:51:10;;;;;;;23.98;10.05;;;;;;;;;;4219078;33;20116;-65
2022/08/06 02:53:43;;;;;;;22.30;9.88;;;;;;;;;;4218685;33;20097;-66
2022/08/06 02:56:12;;;;;;;21.37;9.55;;;;;;;;;;4230280;33;20460;-66
2022/08/06 02:58:46;;;;;;;23.05;7.78;;;;;;;;;;4218660;33;20110;-65
2022/08/06 03:01:15;;;;;;;19.07;8.53;;;;;;;;;;4218874;33;20108;-65
2022/08/06 03:03:44;;;;;;;22.10;8.73;;;;;;;;;;4231610;33;20136;-64
2022/08/06 03:06:11;;;;;;;21.40;8.40;;;;;;;;;;4218498;33;20556;-65
2022/08/06 03:08:38;;;;;;;18.50;8.45;;;;;;;;;;4218694;33;20099;-65
2022/08/06 03:11:05;;;;;;;19.70;8.15;;;;;;;;;;4218569;33;20100;-65
2022/08/06 03:13:31;;;;;;;12.68;7.68;;;;;;;;;;4231492;33;20568;-65
2022/08/06 03:15:59;;;;;;;12.68;7.28;;;;;;;;;;4218717;33;20117;-65
2022/08/06 03:18:26;;;;;;;20.48;7.37;;;;;;;;;;4231517;33;20117;-65
2022/08/06 03:20:53;;;;;;;12.88;5.85;;;;;;;;;;4232272;33;20105;-65
2022/08/06 03:23:19;;;;;;;13.65;6.53;;;;;;;;;;4233750;33;20513;-65
2022/08/06 03:25:46;;;;;;;14.23;6.30;;;;;;;;;;4233574;33;20557;-65
2022/08/06 03:28:12;;;;;;;14.80;6.87;;;;;;;;;;4233618;33;20117;-65
2022/08/06 03:30:40;;;;;;;11.85;5.72;;;;;;;;;;4232133;33;20523;-65
2022/08/06 03:33:13;;;;;;;15.07;5.90;;;;;;;;;;4233572;33;20526;-65
2022/08/06 03:35:40;;;;;;;20.40;6.72;;;;;;;;;;4233332;33;20133;-65
2022/08/06 03:38:08;;;;;;;14.00;5.93;;;;;;;;;;4245250;33;20557;-65
2022/08/06 03:40:36;;;;;;;14.30;7.10;;;;;;;;;;4234450;33;20088;-64
2022/08/06 03:43:02;;;;;;;16.27;6.47;;;;;;;;;;4234598;33;20096;-64
2022/08/06 03:45:30;;;;;;;14.65;6.70;;;;;;;;;;4247439;33;20105;-65
2022/08/06 03:47:57;;;;;;;17.67;6.60;;;;;;;;;;4234704;33;20092;-65
2022/08/06 03:50:31;;;;;;;18.02;6.35;;;;;;;;;;4234230;33;20222;-65
2022/08/06 03:53:07;;;;;;;17.42;7.28;;;;;;;;;;4234762;33;20128;-64
2022/08/06 03:55:35;;;;;;;25.77;7.40;;;;;;;;;;4234478;33;20117;-65
2022/08/06 03:58:11;;;;;;;23.52;8.00;;;;;;;;;;4234338;33;20097;-65
2022/08/06 04:00:53;;;;;;;22.05;10.77;;;;;;;;;;4234540;33;20192;-65
2022/08/06 04:03:20;;;;;;;21.52;8.68;;;;;;;;;;4247483;33;20218;-65
2022/08/06 04:05:48;;;;;;;15.88;8.80;;;;;;;;;;4234217;33;20113;-65
2022/08/06 04:08:14;;;;;;;24.05;11.45;;;;;;;;;;4234241;33;20113;-64
2022/08/06 04:10:46;;;;;;;23.60;11.10;;;;;;;;;;4234428;33;20096;-65
2022/08/06 04:13:14;;;;;;;20.37;10.80;;;;;;;;;;4234280;33;20188;-65
2022/08/06 04:15:41;;;;;;;23.75;11.80;;;;;;;;;;4234324;33;20448;-64
2022/08/06 04:18:16;;;;;;;27.65;11.93;;;;;;;;;;4247282;33;20216;-64
2022/08/06 04:20:44;;;;;;;;;;;;;;;;;;4234454;33;20112;-64
2022/08/06 04:23:11;;;;;;;21.15;10.77;;;;;;;;;;4234095;33;19992;-65
2022/08/06 04:25:43;;;;;;;27.67;10.52;;;;;;;;;;4247181;33;20119;-66
2022/08/06 04:28:09;;;;;;;35.55;10.43;;;;;;;;;;4222785;33;20089;-65
2022/08/06 04:30:37;;;;;;;20.73;9.88;;;;;;;;;;4234132;33;20117;-65
2022/08/06 04:33:04;;;;;;;17.73;9.57;;;;;;;;;;4246419;33;20444;-65
2022/08/06 04:35:30;;;;;;;30.62;9.15;;;;;;;;;;4246994;33;20228;-65
2022/08/06 04:37:58;;;;;;;21.65;9.55;;;;;;;;;;4234015;33;20101;-64
2022/08/06 04:40:25;;;;;;;21.92;9.95;;;;;;;;;;4234110;33;20216;-65
2022/08/06 04:42:51;;;;;;;23.20;11.02;;;;;;;;;;4234067;33;20117;-65
2022/08/06 04:45:18;;;;;;;33.33;12.60;;;;;;;;;;4233979;33;20101;-65
2022/08/06 04:47:44;;;;;;;35.80;12.88;;;;;;;;;;4247037;33;20097;-65
2022/08/06 04:50:10;;;;;;;30.52;13.75;;;;;;;;;;4246966;33;20101;-65
2022/08/06 04:52:37;;;;;;;46.20;18.35;;;;;;;;;;4247035;33;20097;-65
2022/08/06 04:55:03;;;;;;;48.05;18.42;;;;;;;;;;4247179;33;20502;-65
2022/08/06 04:57:29;;;;;;;50.12;18.58;;;;;;;;;;4246947;33;20120;-65
2022/08/06 04:59:55;;;;;;;65.45;22.67;;;;;;;;;;4246859;33;20112;-65
2022/08/06 05:02:21;;;;;;;53.03;20.50;;;;;;;;;;4247128;33;20467;-65
2022/08/06 05:04:55;;;;;;;57.85;21.62;;;;;;;;;;4247185;33;20136;-65
2022/08/06 05:07:28;;;;;;;65.75;21.23;;;;;;;;;;4234574;33;20192;-65
2022/08/06 05:09:56;;;;;;;69.22;20.95;;;;;;;;;;4234251;33;20108;-65
2022/08/06 05:12:39;;;;;;;50.38;18.77;;;;;;;;;;4233659;33;20207;-65
2022/08/06 05:15:10;;;;;;;61.92;21.23;;;;;;;;;;4233671;33;20132;-65
2022/08/06 05:17:40;;;;;;;49.50;19.30;;;;;;;;;;4247109;33;20113;-65
2022/08/06 05:20:16;;;;;;;60.67;21.73;;;;;;;;;;4246960;33;20204;-65
2022/08/06 05:22:44;;;;;;;59.88;21.23;;;;;;;;;;4247055;33;20100;-65
2022/08/06 05:25:10;;;;;;;66.72;22.70;;;;;;;;;;4246936;33;20119;-65
2022/08/06 05:27:36;;;;;;;66.43;24.17;;;;;;;;;;4233529;33;20089;-65
2022/08/06 05:30:06;;;;;;;64.53;22.83;;;;;;;;;;4233577;33;20095;-65
2022/08/06 05:32:53;;;;;;;65.00;26.60;;;;;;;;;;4246686;33;20089;-64
2022/08/06 05:35:19;;;;;;;51.45;21.20;;;;;;;;;;4246355;33;20195;-65
2022/08/06 05:37:45;;;;;;;43.97;16.10;;;;;;;;;;4246612;33;20176;-65
2022/08/06 05:40:11;;;;;;;41.53;15.95;;;;;;;;;;4246528;33;20196;-65
2022/08/06 05:42:37;;;;;;;35.95;16.08;;;;;;;;;;4246625;33;20127;-65
2022/08/06 05:45:03;;;;;;;40.40;15.55;;;;;;;;;;4233470;33;20196;-65
2022/08/06 05:47:34;;;;;;;37.38;14.48;;;;;;;;;;4246512;33;20113;-65
2022/08/06 05:50:10;;;;;;;49.90;19.75;;;;;;;;;;4233493;33;20184;-65
2022/08/06 05:52:54;;;;;;;48.13;19.50;;;;;;;;;;4233740;33;20109;-66
2022/08/06 05:55:38;;;;;;;51.35;17.77;;;;;;;;;;4244979;33;20178;-65
2022/08/06 05:58:09;;;;;;;54.75;19.70;;;;;;;;;;4246625;33;20203;-65
2022/08/06 06:00:36;;;;;;;28.60;13.52;;;;;;;;;;4233457;33;20120;-66
2022/08/06 06:03:04;;;;;;;32.25;12.57;;;;;;;;;;4232839;33;20137;-65
2022/08/06 06:05:31;;;;;;;36.22;12.57;;;;;;;;;;4233258;33;20120;-65
2022/08/06 06:07:57;;;;;;;37.08;12.40;;;;;;;;;;4246208;33;20127;-65
2022/08/06 06:10:24;;;;;;;23.67;9.80;;;;;;;;;;4233181;33;20119;-65
2022/08/06 06:12:50;;;;;;;25.77;9.13;;;;;;;;;;4233458;33;20101;-65
2022/08/06 06:15:16;;;;;;;12.27;5.62;;;;;;;;;;4246442;33;20097;-65
2022/08/06 06:18:04;;;;;;;9.23;5.32;;;;;;;;;;4233112;33;20120;-64
2022/08/06 06:20:33;;;;;;;8.70;3.72;;;;;;;;;;4246242;33;20097;-65
2022/08/06 06:23:16;;;;;;;10.45;3.37;;;;;;;;;;4233121;33;20109;-65
2022/08/06 06:26:20;;;;;;;9.15;4.55;;;;;;;;;;4233075;33;20113;-65
2022/08/06 06:28:46;;;;;;;9.20;3.35;;;;;;;;;;4224003;33;20107;-65
2022/08/06 06:31:44;;;;;;;9.27;3.58;;;;;;;;;;4246273;33;20200;-65
2022/08/06 06:34:26;;;;;;;3.33;2.78;;;;;;;;;;4238526;33;20196;-65
2022/08/06 06:36:59;;;;;;;4.62;2.70;;;;;;;;;;4232883;33;20112;-65
2022/08/06 06:39:32;;;;;;;4.90;3.30;;;;;;;;;;4232831;33;20204;-65
2022/08/06 06:42:08;;;;;;;4.60;2.87;;;;;;;;;;4233174;33;20097;-65
2022/08/06 06:44:46;;;;;;;6.37;3.20;;;;;;;;;;4233286;33;20396;-65
2022/08/06 06:47:16;;;;;;;10.52;3.90;;;;;;;;;;4233141;33;20354;-65
2022/08/06 06:50:11;;;;;;;4.97;3.17;;;;;;;;;;4245840;33;20187;-65
2022/08/06 06:52:42;;;;;;;6.18;2.92;;;;;;;;;;4232838;33;20183;-65
2022/08/06 06:55:30;;;;;;;10.27;3.67;;;;;;;;;;4233238;33;20188;-65
2022/08/06 06:58:04;;;;;;;3.83;2.60;;;;;;;;;;4248017;33;20223;-65
2022/08/06 07:00:30;;;;;;;6.00;2.75;;;;;;;;;;4235075;33;20131;-65
2022/08/06 07:02:59;;;;;;;3.08;2.45;;;;;;;;;;4248049;33;20096;-65
2022/08/06 07:05:25;;;;;;;4.93;2.67;;;;;;;;;;4246764;33;20116;-65
2022/08/06 07:07:52;;;;;;;3.58;2.80;;;;;;;;;;4247843;33;20440;-65
2022/08/06 07:10:19;;;;;;;3.28;2.40;;;;;;;;;;4248048;33;20219;-66
2022/08/06 07:12:45;;;;;;;5.47;3.08;;;;;;;;;;4235023;33;20121;-66
2022/08/06 07:15:12;;;;;;;4.62;2.50;;;;;;;;;;4248056;33;20520;-66
2022/08/06 07:17:39;;;;;;;5.97;2.10;;;;;;;;;;4248080;33;20516;-66
2022/08/06 07:20:08;;;;;;;6.40;3.15;;;;;;;;;;4235108;33;20184;-66
2022/08/06 07:22:35;;;;;;;2.28;1.80;;;;;;;;;;4246386;33;20535;-66
2022/08/06 07:25:03;;;;;;;3.55;2.15;;;;;;;;;;4234527;33;20566;-66
2022/08/06 07:27:36;;;;;;;7.40;2.20;;;;;;;;;;4247679;33;20468;-65
2022/08/06 07:30:03;;;;;;;2.28;1.92;;;;;;;;;;4246497;33;20104;-65
2022/08/06 07:32:30;;;;;;;2.08;1.85;;;;;;;;;;4247666;33;20116;-64
2022/08/06 07:34:57;;;;;;;2.97;2.25;;;;;;;;;;4234422;33;20204;-66
2022/08/06 07:37:24;;;;;;;2.00;1.85;;;;;;;;;;4247457;33;20623;-66
2022/08/06 07:39:52;;;;;;;2.35;1.85;;;;;;;;;;4247454;33;20209;-65
2022/08/06 07:42:19;;;;;;;1.73;1.62;;;;;;;;;;4247520;33;20542;-66
2022/08/06 07:44:48;;;;;;;2.87;1.95;;;;;;;;;;4247689;33;20600;-65
2022/08/06 07:47:20;;;;;;;2.80;2.00;;;;;;;;;;4234425;33;20097;-66
2022/08/06 07:49:50;;;;;;;2.17;1.98;;;;;;;;;;4247724;33;20115;-65
2022/08/06 07:52:17;;;;;;;2.85;2.30;;;;;;;;;;4234585;33;20188;-66
2022/08/06 07:54:43;;;;;;;2.70;2.12;;;;;;;;;;4234250;33;20144;-66
2022/08/06 07:57:10;;;;;;;7.85;2.20;;;;;;;;;;4247528;33;20100;-65
2022/08/06 07:59:36;;;;;;;3.37;2.40;;;;;;;;;;4234782;33;20105;-66
2022/08/06 08:02:04;;;;;;;3.45;2.33;;;;;;;;;;4247686;33;20100;-65
2022/08/06 08:07:15;;;;;;;;;;;;;;;;;;4235696;33;20152;-66
2022/08/06 08:09:45;;;;;;;1.95;1.85;;;;;;;;;;4247335;33;19984;-66
2022/08/06 08:12:16;;;;;;;3.72;2.17;;;;;;;;;;4234216;33;20125;-66
2022/08/06 08:14:47;;;;;;;4.78;2.15;;;;;;;;;;4247172;33;20121;-66
2022/08/06 08:17:14;;;;;;;2.50;2.20;;;;;;;;;;4234254;33;20108;-66
2022/08/06 08:19:41;;;;;;;3.15;2.08;;;;;;;;;;4247225;33;20524;-66
2022/08/06 08:22:16;;;;;;;4.00;2.03;;;;;;;;;;4247308;33;20226;-66
2022/08/06 08:24:44;;;;;;;2.30;2.00;;;;;;;;;;4234122;33;20101;-65
2022/08/06 08:27:11;;;;;;;6.10;2.08;;;;;;;;;;4247176;33;20093;-65
2022/08/06 08:29:38;;;;;;;2.70;2.05;;;;;;;;;;4247080;33;20465;-65
2022/08/06 08:32:06;;;;;;;2.50;2.00;;;;;;;;;;4247234;33;20132;-65
2022/08/06 08:34:32;;;;;;;2.65;2.08;;;;;;;;;;4247101;33;20124;-66
2022/08/06 08:36:59;;;;;;;4.62;2.22;;;;;;;;;;4247234;33;20120;-66
2022/08/06 08:39:27;;;;;;;3.12;2.20;;;;;;;;;;4247089;33;20437;-66
2022/08/06 08:42:06;;;;;;;2.20;2.00;;;;;;;;;;4247112;33;20090;-66
2022/08/06 08:44:33;;;;;;;2.47;2.28;;;;;;;;;;4246938;33;20133;-66
2022/08/06 08:47:00;;;;;;;2.47;2.12;;;;;;;;;;4233856;33;20096;-66
2022/08/06 08:49:31;;;;;;;5.00;3.28;;;;;;;;;;4246874;33;20101;-66
2022/08/06 08:51:58;;;;;;;4.28;2.90;;;;;;;;;;4247077;33;20104;-66
2022/08/06 08:54:24;;;;;;;3.75;2.30;;;;;;;;;;4233823;33;20123;-66
2022/08/06 08:56:51;;;;;;;5.00;2.78;;;;;;;;;;4246999;33;20100;-66
2022/08/06 08:59:18;;;;;;;5.65;1.98;;;;;;;;;;4246938;33;20219;-67
2022/08/06 09:01:44;;;;;;;3.90;2.03;;;;;;;;;;4233808;33;20204;-66
2022/08/06 09:04:10;;;;;;;4.55;2.20;;;;;;;;;;4246802;33;20128;-67
2022/08/06 09:06:37;;;;;;;3.33;1.95;;;;;;;;;;4246893;33;20120;-67
2022/08/06 09:09:05;;;;;;;8.27;2.05;;;;;;;;;;4246827;33;20105;-67
2022/08/06 09:11:35;;;;;;;8.63;2.37;;;;;;;;;;4246826;33;20111;-66
2022/08/06 09:14:05;;;;;;;5.57;2.67;;;;;;;;;;4246844;33;20120;-67
2022/08/06 09:16:32;;;;;;;3.15;2.05;;;;;;;;;;4247155;33;20107;-65
2022/08/06 09:18:59;;;;;;;2.25;2.00;;;;;;;;;;4246420;33;20100;-67
2022/08/06 09:21:26;;;;;;;3.35;2.05;;;;;;;;;;4246793;33;20120;-66
2022/08/06 09:23:52;;;;;;;2.17;2.00;;;;;;;;;;4233595;33;20204;-67
2022/08/06 09:26:18;;;;;;;2.55;2.17;;;;;;;;;;4246805;33;20204;-68
2022/08/06 09:28:44;;;;;;;2.20;2.03;;;;;;;;;;4246460;33;20504;-67
2022/08/06 09:31:19;;;;;;;3.08;2.10;;;;;;;;;;4246779;33;20097;-67
2022/08/06 09:34:00;;;;;;;3.42;2.20;;;;;;;;;;4246564;33;20216;-67
2022/08/06 09:36:27;;;;;;;4.20;2.12;;;;;;;;;;4246540;33;20461;-67
2022/08/06 09:39:01;;;;;;;4.75;2.05;;;;;;;;;;4246758;33;20104;-67
2022/08/06 09:41:29;;;;;;;2.72;2.20;;;;;;;;;;4233741;33;20092;-67
2022/08/06 09:43:56;;;;;;;2.20;2.00;;;;;;;;;;4246757;33;20136;-67
2022/08/06 09:46:55;;;;;;;2.67;2.05;;;;;;;;;;4246625;33;20112;-66
2022/08/06 09:49:21;;;;;;;2.53;2.20;;;;;;;;;;4214854;33;20129;-67
2022/08/06 09:51:47;;;;;;;3.50;2.37;;;;;;;;;;4246410;33;20143;-67
2022/08/06 09:54:15;;;;;;;6.95;2.10;;;;;;;;;;4246431;33;20219;-67
2022/08/06 09:56:42;;;;;;;3.40;2.33;;;;;;;;;;4246424;33;20208;-68
2022/08/06 09:59:09;;;;;;;2.22;1.95;;;;;;;;;;4246405;33;20103;-67
2022/08/06 10:01:41;;;;;;;2.20;2.00;;;;;;;;;;4233272;33;20115;-67
2022/08/06 10:04:12;;;;;;;2.72;1.85;;;;;;;;;;4246415;33;20276;-68
2022/08/06 10:06:58;;;;;;;2.10;1.58;;;;;;;;;;4246372;33;20392;-67
2022/08/06 10:09:25;;;;;;;2.75;2.10;;;;;;;;;;4246199;33;20112;-68
2022/08/06 10:11:52;;;;;;;2.65;1.90;;;;;;;;;;4246325;33;20449;-67
2022/08/06 10:14:24;;;;;;;3.95;2.42;;;;;;;;;;4246278;33;20515;-67
2022/08/06 10:17:10;;;;;;;2.42;2.08;;;;;;;;;;4246256;33;20113;-67
2022/08/06 10:19:38;;;;;;;3.78;2.45;;;;;;;;;;4246145;33;20128;-68
2022/08/06 10:22:15;;;;;;;2.28;1.92;;;;;;;;;;4246249;33;20107;-67
2022/08/06 10:24:43;;;;;;;3.78;2.70;;;;;;;;;;4246278;33;20121;-67
2022/08/06 10:27:11;;;;;;;4.65;1.98;;;;;;;;;;4246136;33;20132;-67
2022/08/06 10:29:43;;;;;;;3.53;2.35;;;;;;;;;;4237211;33;20140;-67
2022/08/06 10:32:15;;;;;;;2.03;1.77;;;;;;;;;;4256703;33;20120;-68
2022/08/06 10:34:41;;;;;;;2.67;2.10;;;;;;;;;;4255775;33;20115;-67
2022/08/06 10:37:10;;;;;;;2.87;2.00;;;;;;;;;;4241311;33;20493;-67
2022/08/06 10:39:38;;;;;;;4.57;2.05;;;;;;;;;;4250150;33;20127;-66
2022/08/06 10:42:04;;;;;;;2.78;2.03;;;;;;;;;;4235441;33;20533;-67
2022/08/06 10:44:32;;;;;;;2.12;1.90;;;;;;;;;;4248000;33;20222;-67
2022/08/06 10:46:59;;;;;;;6.00;3.75;;;;;;;;;;4248157;33;20441;-66
2022/08/06 10:49:26;;;;;;;5.43;3.85;;;;;;;;;;4248154;33;20525;-67
2022/08/06 10:51:52;;;;;;;4.65;2.87;;;;;;;;;;4234905;33;20101;-67
2022/08/06 10:54:19;;;;;;;3.17;2.20;;;;;;;;;;4235027;33;20120;-67
2022/08/06 10:56:46;;;;;;;3.10;1.90;;;;;;;;;;4247986;33;20478;-67
2022/08/06 10:59:16;;;;;;;2.90;2.35;;;;;;;;;;4234992;33;20201;-67
2022/08/06 11:02:33;;;;;;;6.10;2.30;;;;;;;;;;4248011;33;20109;-67
2022/08/06 11:05:01;;;;;;;7.22;2.12;;;;;;;;;;4216293;33;20337;-67
2022/08/06 11:07:48;;;;;;;7.80;2.67;;;;;;;;;;4234743;33;20191;-67
2022/08/06 11:10:24;;;;;;;4.03;2.30;;;;;;;;;;4248069;33;20113;-67
2022/08/06 11:12:53;;;;;;;2.67;2.22;;;;;;;;;;4247929;33;20203;-66
2022/08/06 11:15:19;;;;;;;3.45;2.28;;;;;;;;;;4233157;33;20207;-67
2022/08/06 11:17:46;;;;;;;2.75;2.28;;;;;;;;;;4247856;33;20096;-66
2022/08/06 11:20:39;;;;;;;3.03;2.12;;;;;;;;;;4248021;33;20125;-67
2022/08/06 11:23:11;;;;;;;4.07;2.28;;;;;;;;;;4247796;33;20441;-67
2022/08/06 11:25:44;;;;;;;4.40;2.10;;;;;;;;;;4247958;33;20112;-66
2022/08/06 11:28:15;;;;;;;2.80;2.00;;;;;;;;;;4247973;33;20108;-67
2022/08/06 11:30:43;;;;;;;3.50;2.03;;;;;;;;;;4248119;33;20131;-66
2022/08/06 11:33:10;;;;;;;1.83;1.70;;;;;;;;;;4248095;33;20101;-67
2022/08/06 11:35:36;;;;;;;6.62;2.60;;;;;;;;;;4247837;33;20112;-66
2022/08/06 11:38:04;;;;;;;3.62;2.60;;;;;;;;;;4247635;33;20211;-66
2022/08/06 11:41:01;;;;;;;2.72;1.90;;;;;;;;;;4247725;33;20116;-67
2022/08/06 11:43:47;;;;;;;6.22;2.58;;;;;;;;;;4247799;33;20104;-66
2022/08/06 11:46:26;;;;;;;3.55;2.35;;;;;;;;;;4247956;33;20437;-66
2022/08/06 11:49:02;;;;;;;4.82;2.65;;;;;;;;;;4247416;33;20096;-65
2022/08/06 11:51:39;;;;;;;5.80;2.25;;;;;;;;;;4247643;33;20211;-67
2022/08/06 11:54:37;;;;;;;4.10;2.00;;;;;;;;;;4247544;33;20120;-67
2022/08/06 11:57:06;;;;;;;4.68;1.98;;;;;;;;;;4234250;33;20524;-67
2022/08/06 11:59:39;;;;;;;8.40;2.30;;;;;;;;;;4247360;33;20104;-67
2022/08/06 12:02:07;;;;;;;3.85;2.40;;;;;;;;;;4247779;33;20176;-67
2022/08/06 12:04:35;;;;;;;2.90;2.28;;;;;;;;;;4247600;33;20112;-66
2022/08/06 12:07:23;;;;;;;6.20;2.17;;;;;;;;;;4247484;33;20120;-66
2022/08/06 12:10:11;;;;;;;2.85;1.85;;;;;;;;;;4234685;33;20521;-67
2022/08/06 12:12:39;;;;;;;2.37;2.17;;;;;;;;;;4247550;33;20105;-66
2022/08/06 12:15:11;;;;;;;5.82;1.98;;;;;;;;;;4247707;33;20105;-67
2022/08/06 12:17:53;;;;;;;5.97;2.33;;;;;;;;;;4247377;33;20107;-66
2022/08/06 12:20:32;;;;;;;4.32;2.20;;;;;;;;;;4247791;33;20210;-66
2022/08/06 12:22:59;;;;;;;3.92;2.00;;;;;;;;;;4247303;33;20200;-66
2022/08/06 12:25:32;;;;;;;2.65;2.22;;;;;;;;;;4247038;33;20469;-67
2022/08/06 12:27:59;;;;;;;7.93;2.20;;;;;;;;;;4246991;33;20410;-67
2022/08/06 12:30:25;;;;;;;5.25;2.10;;;;;;;;;;4247484;33;20112;-67
2022/08/06 12:33:00;;;;;;;3.33;2.20;;;;;;;;;;4247152;33;20104;-67
2022/08/06 12:35:26;;;;;;;2.45;1.70;;;;;;;;;;4247234;33;20473;-67
2022/08/06 12:37:52;;;;;;;6.45;2.15;;;;;;;;;;4247195;33;20124;-66
2022/08/06 12:40:28;;;;;;;2.35;2.03;;;;;;;;;;4247221;33;20096;-67
2022/08/06 12:43:09;;;;;;;5.93;2.50;;;;;;;;;;4246962;33;20127;-67
2022/08/06 12:45:35;;;;;;;5.68;2.55;;;;;;;;;;4247154;33;20124;-67
2022/08/06 12:48:07;;;;;;;4.97;2.12;;;;;;;;;;4247144;33;20093;-68
2022/08/06 12:50:35;;;;;;;3.47;2.10;;;;;;;;;;4247009;33;20111;-69
2022/08/06 12:53:07;;;;;;;4.25;1.90;;;;;;;;;;4246295;33;20476;-67
2022/08/06 12:55:55;;;;;;;3.83;2.55;;;;;;;;;;4247133;33;20206;-67
2022/08/06 12:58:31;;;;;;;4.07;2.12;;;;;;;;;;4246813;33;20227;-67
2022/08/06 13:00:58;;;;;;;4.95;2.17;;;;;;;;;;4246920;33;20116;-67
2022/08/06 13:03:25;;;;;;;3.90;2.17;;;;;;;;;;4233965;33;20477;-67
2022/08/06 13:05:52;;;;;;;10.00;5.57;;;;;;;;;;4246907;33;20442;-67
2022/08/06 13:08:19;;;;;;;2.40;2.20;;;;;;;;;;4233638;33;20540;-67
2022/08/06 13:10:49;;;;;;;3.60;2.10;;;;;;;;;;4246862;33;20540;-67
2022/08/06 13:13:16;;;;;;;7.72;2.37;;;;;;;;;;4246859;33;20115;-67
2022/08/06 13:15:42;;;;;;;5.15;2.15;;;;;;;;;;4233727;33;20195;-68
2022/08/06 13:18:16;;;;;;;2.67;2.05;;;;;;;;;;4246660;33;20196;-67
2022/08/06 13:20:44;;;;;;;5.15;2.37;;;;;;;;;;4246779;33;20112;-67
2022/08/06 13:23:12;;;;;;;7.90;2.55;;;;;;;;;;4246944;33;20107;-68
2022/08/06 13:25:45;;;;;;;4.22;2.33;;;;;;;;;;4246715;33;20093;-68
2022/08/06 13:28:14;;;;;;;5.47;2.95;;;;;;;;;;4246599;33;20116;-67
2022/08/06 13:30:41;;;;;;;4.95;2.90;;;;;;;;;;4246701;33;20103;-68
2022/08/06 13:33:13;;;;;;;3.42;2.25;;;;;;;;;;4233529;33;20868;-68
2022/08/06 13:35:39;;;;;;;11.45;2.80;;;;;;;;;;4246496;33;20211;-68
2022/08/06 13:38:05;;;;;;;7.07;2.30;;;;;;;;;;4246507;33;20105;-68
2022/08/06 13:40:38;;;;;;;10.48;2.78;;;;;;;;;;4246644;33;20143;-68
2022/08/06 13:43:06;;;;;;;3.47;2.37;;;;;;;;;;4246554;33;20113;-68
2022/08/06 13:45:32;;;;;;;4.55;2.60;;;;;;;;;;4246613;33;20109;-69
2022/08/06 13:48:08;;;;;;;7.32;2.75;;;;;;;;;;4246569;33;20114;-66
2022/08/06 13:50:36;;;;;;;6.12;2.28;;;;;;;;;;4246611;33;20105;-66
2022/08/06 13:53:03;;;;;;;6.10;2.50;;;;;;;;;;4246388;33;20094;-66
2022/08/06 13:55:29;;;;;;;6.78;2.12;;;;;;;;;;4246440;33;20120;-68
2022/08/06 13:57:56;;;;;;;4.65;2.25;;;;;;;;;;4246707;33;20124;-68
2022/08/06 14:00:23;;;;;;;2.42;2.22;;;;;;;;;;4246390;33;20634;-66
2022/08/06 14:02:49;;;;;;;2.12;1.90;;;;;;;;;;4246397;33;20127;-68
2022/08/06 14:05:15;;;;;;;2.53;2.28;;;;;;;;;;4246467;33;20151;-68
2022/08/06 14:07:41;;;;;;;4.15;2.40;;;;;;;;;;4246314;33;20220;-68
2022/08/06 14:10:08;;;;;;;5.30;2.55;;;;;;;;;;4246325;33;20108;-65
2022/08/06 14:12:34;;;;;;;5.75;2.70;;;;;;;;;;4246355;33;20210;-65
2022/08/06 14:15:00;;;;;;;7.30;2.80;;;;;;;;;;4246090;33;20556;-67
2022/08/06 14:17:26;;;;;;;2.85;2.45;;;;;;;;;;4246325;33;20136;-67
2022/08/06 14:19:52;;;;;;;4.90;2.87;;;;;;;;;;4246306;33;20112;-67
2022/08/06 14:22:18;;;;;;;2.50;2.30;;;;;;;;;;4246251;33;20211;-66
2022/08/06 14:24:44;;;;;;;6.35;2.55;;;;;;;;;;4246134;33;20113;-67
2022/08/06 14:27:12;;;;;;;3.78;2.62;;;;;;;;;;4246127;33;20104;-67
2022/08/06 14:29:38;;;;;;;6.68;2.55;;;;;;;;;;4245930;33;20512;-67
2022/08/06 14:32:05;;;;;;;8.77;2.67;;;;;;;;;;4233237;33;20104;-67
2022/08/06 14:34:31;;;;;;;6.25;3.08;;;;;;;;;;4245934;33;20124;-67
2022/08/06 14:36:58;;;;;;;3.90;2.35;;;;;;;;;;4246213;33;20119;-66
2022/08/06 14:39:24;;;;;;;3.47;2.55;;;;;;;;;;4245915;33;20191;-66
2022/08/06 14:47:19;;;;;;;3.20;2.30;;;;;;;;;;4245954;33;20109;-67
2022/08/06 14:49:45;;;;;;;2.65;2.33;;;;;;;;;;4245816;33;20115;-67
2022/08/06 14:52:11;;;;;;;5.15;2.90;;;;;;;;;;4245995;33;20115;-67
2022/08/06 14:54:37;;;;;;;5.62;2.40;;;;;;;;;;4245751;33;20541;-66
2022/08/06 14:57:08;;;;;;;3.20;2.60;;;;;;;;;;4232746;33;20188;-67
2022/08/06 14:59:35;;;;;;;3.45;2.47;;;;;;;;;;4245953;33;20219;-67
2022/08/06 15:02:02;;;;;;;5.78;2.65;;;;;;;;;;4245708;33;20119;-67
2022/08/06 15:04:28;;;;;;;4.22;2.40;;;;;;;;;;4245585;33;20631;-67
2022/08/06 15:06:55;;;;;;;4.35;2.50;;;;;;;;;;4245764;33;20196;-67
2022/08/06 15:09:21;;;;;;;3.65;2.17;;;;;;;;;;4232579;33;20116;-68
2022/08/06 15:11:48;;;;;;;6.25;2.33;;;;;;;;;;4245937;33;20123;-67
2022/08/06 15:14:14;;;;;;;2.95;2.45;;;;;;;;;;4245603;33;20200;-68
2022/08/06 15:16:40;;;;;;;3.42;2.12;;;;;;;;;;4246287;33;20204;-67
2022/08/06 15:19:06;;;;;;;2.30;1.98;;;;;;;;;;4247845;33;20263;-68
2022/08/06 15:21:33;;;;;;;2.97;2.37;;;;;;;;;;4248112;33;20108;-67
2022/08/06 15:23:59;;;;;;;2.75;2.35;;;;;;;;;;4247834;33;20212;-68
2022/08/06 15:26:26;;;;;;;3.35;2.47;;;;;;;;;;4247847;33;20117;-68
2022/08/06 15:28:53;;;;;;;4.72;2.65;;;;;;;;;;4247703;33;20101;-68
2022/08/06 15:31:19;;;;;;;3.05;2.70;;;;;;;;;;4247967;33;20096;-67
2022/08/06 15:33:46;;;;;;;6.37;2.45;;;;;;;;;;4247667;33;20203;-67
2022/08/06 15:36:12;;;;;;;3.17;2.45;;;;;;;;;;4247626;33;20109;-68